createdAt,value
2023-04-21T00:03:59.321Z,100615.88
2023-04-21T00:09:02.269Z,100601.59
2023-04-21T00:14:06.531Z,100597.56
2023-04-21T00:19:09.452Z,100596.47
2023-04-21T00:24:12.389Z,100597.47
2023-04-21T00:29:16.656Z,100598.06
2023-04-21T00:34:19.582Z,100607.75
2023-04-21T00:39:22.287Z,100612.91
2023-04-21T00:44:26.386Z,100611.78
2023-04-21T00:49:29.409Z,100621.81
2023-04-21T00:54:32.151Z,100631.66
2023-04-21T00:59:37.575Z,100638.56
2023-04-21T01:04:40.764Z,100656.13
2023-04-21T01:09:43.498Z,100680.75
2023-04-21T01:14:47.613Z,100686.69
2023-04-21T01:19:51.628Z,100702.63
2023-04-21T01:24:56.143Z,100724.47
2023-04-21T01:29:58.970Z,100734.34
2023-04-21T01:35:03.780Z,100737.44
2023-04-21T01:40:09.398Z,100752.06
2023-04-21T01:45:12.836Z,100756.44
2023-04-21T01:50:15.598Z,100762.16
2023-04-21T01:55:20.467Z,100772.44
2023-04-21T02:00:23.216Z,100788.38
2023-04-21T02:05:25.942Z,100798.56
2023-04-21T02:10:30.005Z,100805.75
2023-04-21T02:15:33.603Z,100816.50
2023-04-21T02:20:36.453Z,100823.41
2023-04-21T02:25:40.553Z,100849.94
2023-04-21T02:30:43.260Z,100852.06
2023-04-21T02:35:46.026Z,100852.69
2023-04-21T02:40:50.575Z,100863.63
2023-04-21T02:45:54.542Z,100876.28
2023-04-21T02:50:57.362Z,100878.50
2023-04-21T02:56:04.542Z,100897.16
2023-04-21T03:01:07.595Z,100900.22
2023-04-21T03:06:10.997Z,100905.56
2023-04-21T03:11:16.511Z,100910.25
2023-04-21T03:16:19.774Z,100921.75
2023-04-21T03:21:22.563Z,100935.69
2023-04-21T03:26:26.660Z,100939.34
2023-04-21T03:31:29.433Z,100946.41
2023-04-21T03:36:32.928Z,100951.94
2023-04-21T03:41:37.127Z,100956.28
2023-04-21T03:46:40.147Z,100968.75
2023-04-21T03:51:42.872Z,100979.81
2023-04-21T03:56:46.974Z,100983.59
2023-04-21T04:01:49.690Z,100991.97
2023-04-21T04:06:52.416Z,101002.75
2023-04-21T04:11:56.517Z,100991.97
2023-04-21T04:16:59.833Z,100994.53
2023-04-21T04:22:02.873Z,101000.19
2023-04-21T04:27:06.978Z,101000.75
2023-04-21T04:32:10.850Z,100999.38
2023-04-21T04:37:13.589Z,101010.72
2023-04-21T04:42:20.228Z,101013.78
2023-04-21T04:47:23.023Z,101017.06
2023-04-21T04:52:26.228Z,101014.16
2023-04-21T04:57:30.269Z,101025.47
2023-04-21T05:02:33.809Z,101043.13
2023-04-21T05:07:36.615Z,101031.38
2023-04-21T05:12:41.058Z,101033.97
2023-04-21T05:17:43.816Z,101038.19
2023-04-21T05:22:46.558Z,101055.56
2023-04-21T05:27:50.642Z,101040.69
2023-04-21T05:32:53.393Z,101044.75
2023-04-21T05:37:56.183Z,101048.22
2023-04-21T05:43:00.205Z,101049.63
2023-04-21T05:48:02.937Z,101046.91
2023-04-21T05:53:05.790Z,101039.81
2023-04-21T05:58:10.252Z,101035.56
2023-04-21T06:03:13.086Z,101033.72
2023-04-21T06:08:15.837Z,101019.66
2023-04-21T06:13:20.004Z,101005.66
2023-04-21T06:18:23.952Z,100990.16
2023-04-21T06:23:26.661Z,100980.91
2023-04-21T06:28:30.921Z,100976.91
2023-04-21T06:33:33.693Z,100954.94
2023-04-21T06:38:36.554Z,100944.91
2023-04-21T06:43:40.773Z,100934.28
2023-04-21T06:48:44.037Z,100918.63
2023-04-21T06:53:46.775Z,100905.97
2023-04-21T06:58:50.932Z,100886.59
2023-04-21T07:03:54.135Z,100870.53
2023-04-21T07:08:56.990Z,100846.16
2023-04-21T07:14:02.199Z,100830.09
2023-04-21T07:19:04.985Z,100820.44
2023-04-21T07:24:08.318Z,100813.75
2023-04-21T07:29:12.391Z,100798.59
2023-04-21T07:34:15.111Z,100793.75
2023-04-21T07:39:18.167Z,100778.97
2023-04-21T07:44:22.520Z,100773.97
2023-04-21T07:49:25.317Z,100754.47
2023-04-21T07:54:29.183Z,100743.47
2023-04-21T07:59:33.881Z,100742.97
2023-04-21T08:04:36.768Z,100724.81
2023-04-21T08:09:39.676Z,100712.59
2023-04-21T08:14:44.094Z,100706.09
2023-04-21T08:19:46.956Z,100699.16
2023-04-21T08:24:49.728Z,100687.44
2023-04-21T08:29:53.851Z,100669.91
2023-04-21T08:34:56.716Z,100659.94
2023-04-21T08:39:59.459Z,100652.38
2023-04-21T08:45:03.961Z,100656.13
2023-04-21T08:50:08.614Z,100638.81
2023-04-21T08:55:13.453Z,100632.56
2023-04-21T09:00:18.144Z,100623.44
2023-04-21T09:05:24.216Z,100605.44
2023-04-21T09:10:27.248Z,100595.31
2023-04-21T09:15:31.981Z,100588.03
2023-04-21T09:20:34.696Z,100588.50
2023-04-21T09:25:39.802Z,100576.53
2023-04-21T09:30:44.416Z,100549.19
2023-04-21T09:35:48.087Z,100558.53
2023-04-21T09:40:58.001Z,100544.09
2023-04-21T09:46:03.413Z,100533.69
2023-04-21T09:56:14.890Z,100510.75
2023-04-21T10:01:19.255Z,100491.78
2023-04-21T10:06:22.117Z,100473.25
2023-04-21T10:11:25.122Z,100443.13
2023-04-21T10:16:29.729Z,100424.09
2023-04-21T10:21:37.934Z,100425.88
2023-04-21T10:26:40.675Z,100442.91
2023-04-21T10:31:53.143Z,100418.25
2023-04-21T10:37:19.529Z,100376.03
2023-04-21T10:42:31.173Z,100353.84
2023-04-21T10:47:41.149Z,100381.63
2023-04-21T10:52:48.247Z,100390.59
2023-04-21T10:57:51.055Z,100440.00
2023-04-21T11:02:59.874Z,100416.03
2023-04-21T11:08:11.255Z,100399.94
2023-04-21T11:13:14.127Z,100354.81
2023-04-21T11:18:19.348Z,100329.88
2023-04-21T11:23:22.358Z,100305.81
2023-04-21T11:28:25.305Z,100287.47
2023-04-21T11:33:31.832Z,100289.75
2023-04-21T11:38:41.017Z,100254.25
2023-04-21T11:43:46.919Z,100210.28
2023-04-21T11:48:59.441Z,100205.31
2023-04-21T11:54:02.382Z,100189.34
2023-04-21T11:59:08.261Z,100172.34
2023-04-21T12:04:14.948Z,100142.84
2023-04-21T12:09:19.287Z,100134.06
2023-04-21T12:14:23.240Z,100129.59
2023-04-21T12:19:37.386Z,100115.34
2023-04-21T12:24:40.563Z,100100.19
2023-04-21T12:29:43.405Z,100116.28
2023-04-21T12:34:47.520Z,100098.34
2023-04-21T12:39:50.237Z,100088.59
2023-04-21T12:44:52.962Z,100096.66
2023-04-21T12:49:57.086Z,100086.88
2023-04-21T12:54:59.826Z,100091.31
2023-04-21T13:00:03.017Z,100079.75
2023-04-21T13:05:09.897Z,100077.94
2023-04-21T13:10:12.836Z,100079.75
2023-04-21T13:15:15.525Z,100072.59
2023-04-21T13:20:20.340Z,100065.50
2023-04-21T13:25:23.150Z,100052.09
2023-04-21T13:30:25.900Z,100040.53
2023-04-21T13:35:30.058Z,100036.09
2023-04-21T13:40:32.856Z,100040.53
2023-04-21T13:45:35.775Z,100040.53
2023-04-21T13:50:39.869Z,100033.38
2023-04-21T13:55:43.756Z,100023.59
2023-04-21T14:00:46.422Z,100014.50
2023-04-21T14:05:50.908Z,100005.56
2023-04-21T14:10:53.738Z,100005.31
2023-04-21T14:15:56.885Z,100006.16
2023-04-21T14:21:00.994Z,99997.34
2023-04-21T14:26:03.683Z,99990.44
2023-04-21T14:31:06.505Z,99983.47
2023-04-21T14:36:11.397Z,99982.63
2023-04-21T14:41:14.451Z,99973.75
2023-04-21T14:46:17.175Z,99972.81
2023-04-21T14:51:21.548Z,99969.28
2023-04-21T14:56:24.215Z,99970.16
2023-04-21T15:01:26.963Z,99967.50
2023-04-21T15:06:31.649Z,99966.59
2023-04-21T15:11:34.440Z,99954.97
2023-04-21T15:16:37.159Z,99973.63
2023-04-21T15:21:41.526Z,99970.03
2023-04-21T15:26:44.323Z,99964.72
2023-04-21T15:31:47.014Z,99946.03
2023-04-21T15:36:51.152Z,99938.94
2023-04-21T15:41:55.053Z,99930.09
2023-04-21T15:46:58.011Z,99926.50
2023-04-21T15:52:03.208Z,99924.72
2023-04-21T15:57:06.152Z,99922.00
2023-04-21T16:02:09.394Z,99921.13
2023-04-21T16:07:13.612Z,99912.22
2023-04-21T16:12:16.427Z,99899.81
2023-04-21T16:17:19.154Z,99900.69
2023-04-21T16:22:23.396Z,99893.56
2023-04-21T16:27:26.288Z,99886.41
2023-04-21T16:32:29.137Z,99882.84
2023-04-21T16:37:33.198Z,99873.91
2023-04-21T16:42:36.162Z,99867.63
2023-04-21T16:47:42.059Z,99864.94
2023-04-21T16:52:46.472Z,99856.06
2023-04-21T16:57:49.233Z,99862.28
2023-04-21T17:02:52.131Z,99846.34
2023-04-21T17:07:56.442Z,99843.72
2023-04-21T17:12:59.184Z,99841.03
2023-04-21T17:18:02.225Z,99839.28
2023-04-21T17:23:06.363Z,99826.78
2023-04-21T17:28:09.210Z,99821.41
2023-04-21T17:33:16.813Z,99824.03
2023-04-21T17:38:21.772Z,99820.44
2023-04-21T17:43:24.618Z,99815.91
2023-04-21T17:48:27.402Z,99805.22
2023-04-21T17:53:31.993Z,99805.19
2023-04-21T17:58:35.162Z,99806.88
2023-04-21T18:03:41.078Z,99800.59
2023-04-21T18:08:45.418Z,99804.97
2023-04-21T18:13:48.158Z,99802.28
2023-04-21T18:18:50.898Z,99807.56
2023-04-21T18:23:54.974Z,99809.31
2023-04-21T18:28:58.298Z,99838.66
2023-04-21T18:34:01.091Z,99852.50
2023-04-21T18:39:05.227Z,99832.94
2023-04-21T18:44:07.909Z,99844.44
2023-04-21T18:49:10.580Z,99851.41
2023-04-21T18:54:14.620Z,99864.69
2023-04-21T18:59:17.500Z,99888.59
2023-04-21T19:04:20.400Z,99891.63
2023-04-21T19:09:24.719Z,99902.03
2023-04-21T19:14:28.302Z,99880.63
2023-04-21T19:19:31.774Z,99885.03
2023-04-21T19:24:36.176Z,99892.03
2023-04-21T19:29:39.174Z,99888.41
2023-04-21T19:34:41.843Z,99895.88
2023-04-21T19:39:45.959Z,99887.72
2023-04-21T19:44:48.626Z,99867.53
2023-04-21T19:49:51.300Z,99867.31
2023-04-21T19:54:55.572Z,99880.78
2023-04-21T19:59:58.255Z,99877.13
2023-04-21T20:05:00.954Z,99925.69
2023-04-21T20:10:06.995Z,99930.34
2023-04-21T20:15:11.833Z,99868.41
2023-04-21T20:20:14.621Z,99850.16
2023-04-21T20:25:19.272Z,99872.63
2023-04-21T20:30:22.246Z,99861.91
2023-04-21T20:35:24.979Z,99849.59
2023-04-21T20:40:30.061Z,99838.78
2023-04-21T20:45:33.464Z,99839.09
2023-04-21T20:50:36.195Z,99857.94
2023-04-21T20:55:40.423Z,99849.69
2023-04-21T21:00:43.241Z,99852.41
2023-04-21T21:05:46.095Z,99962.22
2023-04-21T21:10:50.182Z,99962.44
2023-04-21T21:15:52.925Z,99956.66
2023-04-21T21:20:55.618Z,99952.53
2023-04-21T21:26:00.147Z,99935.50
2023-04-21T21:31:02.817Z,99937.25
2023-04-21T21:36:06.287Z,99939.06
2023-04-21T21:41:12.161Z,99895.25
2023-04-21T21:46:14.991Z,99868.72
2023-04-21T21:51:18.035Z,99864.44
2023-04-21T21:56:23.888Z,99863.59
2023-04-21T22:01:26.989Z,99864.16
2023-04-21T22:06:29.725Z,99861.59
2023-04-21T22:11:33.881Z,99864.75
2023-04-21T22:16:37.662Z,99874.13
2023-04-21T22:21:40.364Z,99875.09
2023-04-21T22:26:44.844Z,99862.03
2023-04-21T22:31:48.019Z,99870.03
2023-04-21T22:36:51.998Z,99900.81
2023-04-21T22:41:57.255Z,99922.41
2023-04-21T22:47:00.424Z,99952.75
2023-04-21T22:52:03.738Z,99897.31
2023-04-21T22:57:07.951Z,99908.53
2023-04-21T23:02:11.443Z,99881.06
2023-04-21T23:07:14.060Z,99893.50
2023-04-21T23:12:18.042Z,99890.81
2023-04-21T23:17:21.389Z,99899.47
2023-04-21T23:22:26.076Z,99894.91
2023-04-21T23:27:30.347Z,99907.34
2023-04-21T23:32:33.122Z,99900.19
2023-04-21T23:37:35.990Z,99929.09
2023-04-21T23:42:40.151Z,99949.81
2023-04-21T23:47:42.928Z,99956.50
2023-04-21T23:52:45.633Z,99960.34
2023-04-21T23:57:49.680Z,99924.16
